LFSDLFGJ

Guest
Details From LFSD - Dijon Longvic AB
To LFGJ - Dole Tavaux
Flight Number -
Tags generated
Created
Modified
Stats Distance 20 nm / 36 km
Max Altitude 100 ft / 30 m
Waypoints 3
Social Downloads 6
Likes 0
Share VATSIM

Download

Looking for another format? Having issues loading an existing format? Contact us
Advertisement - Login to hide

Notes

Basic altitude profile: - Ascent Rate: 2500ft/min - Ascent Speed: 250kts - Cruise Altitude: 25000ft - Cruise Speed: 400kts - Descent Rate: 1500ft/min - Descent Speed: 250kts Options: - Use NATs: yes - Use PACOTS: yes - Use low airways: yes - Use high airways: yes

Route

LFSD DJL LFGJ

ID Type Via Altitude Latitude Longitude Leg Dist Tot Dist Heading (true) Name
O LFSD APT - 0 ft / 0 m 47.26901˚ 5.09012˚ - 0 nm - Dijon Longvic AB
DJL VOR - 100 ft / 30 m 47.27078˚ 5.09733˚ 0 nm 0 nm 70° / 70° DIJON-LONGVIC VOR-DME
O LFGJ APT - 0 ft / 0 m 47.03893˚ 5.42727˚ 19 nm 19 nm 136° / 136° Dole Tavaux

Altitude Profile

Advertisement - Login to hide

LFSD

Details ICAO LFSD (DIJ)
Name Dijon Longvic AB
Region France
Timezone Europe/Paris (UTC+1.0)
Stats Elevation 726 ft / 221 m (AMSL)
Location 47.269011° 5.090116°
Runways 2
Magnetic Variation 1.448° E

METAR

LFSD 140830Z AUTO 22010KT 200V260 CAVOK 06/02 Q1007

Decode

TAF

Not found

Departure Runways

ID Width Length Bearing (true) Bearing (mag) Surface Threshold Offset Overrun Length
02 118 ft / 36 m 6,054 ft / 1,845 m 15.20° 13.75° Asphalt 0 ft / 0 m 328 ft / 100 m
18 148 ft / 45 m 7,877 ft / 2,401 m 175.00° 173.55° Asphalt 0 ft / 0 m 1,385 ft / 422 m
20 118 ft / 36 m 6,054 ft / 1,845 m 195.20° 193.75° Asphalt 0 ft / 0 m 443 ft / 135 m
36 148 ft / 45 m 7,877 ft / 2,401 m 355.00° 353.55° Asphalt 0 ft / 0 m 1,099 ft / 335 m

LFGJ

Details ICAO LFGJ (DLE)
Name Dole Tavaux
Region France
Timezone Europe/Paris (UTC+1.0)
Stats Elevation 645 ft / 197 m (AMSL)
Location 47.038933° 5.427265°
Runways 1
Magnetic Variation 1.545° E

METAR

LFGJ 140830Z AUTO 19010KT 9999 FEW032 BKN180 06/05 Q1008 NOSIG

Decode

TAF

Not found

Destination Runways

ID Width Length Bearing (true) Bearing (mag) Surface Threshold Offset Overrun Length
05 148 ft / 45 m 7,306 ft / 2,227 m 54.25° 52.71° Asphalt 0 ft / 0 m 0 ft / 0 m
23 148 ft / 45 m 7,306 ft / 2,227 m 234.27° 232.73° Asphalt 0 ft / 0 m 1,214 ft / 370 m

Approach Navaids

Runway Type Ident Frequency Range Bearing (true) Bearing (mag) Slope Elevation
05 Localiser DO 109.35 MHz 18 nm / 33 km 54.27° 52.73° - 646 ft / 197 m (AMSL)
05 Glidescope DO 109.35 MHz 10 nm / 19 km 54.26° 52.72° 3.10° 634 ft / 193 m (AMSL)
05 DME DO 109.35 MHz 18 nm / 33 km - - - 690 ft / 210 m (AMSL)
23 Localiser DO 109.70 MHz 18 nm / 33 km 234.34° 232.79° - 643 ft / 196 m (AMSL)
23 Glidescope DO 109.70 MHz 10 nm / 19 km 234.26° 232.72° 3.00° 643 ft / 196 m (AMSL)